Time;durP1;ratioP1;P1;durP2;ratioP2;P2;SDS_P1;SDS_P2;PMS_P1;PMS_P2;Temp;Humidity;BMP_temperature;BMP_pressure;BME280_temperature;BME280_humidity;BME280_pressure;Samples;Min_cycle;Max_cycle;Signal;HPM_P1;HPM_P2
2022/08/14 00:00:43;;;;;;;2.30;2.22;;;24.30;99.90;;;24.73;61.17;101041.09;4826018;29;20042;-75
2022/08/14 00:03:19;;;;;;;1.55;1.55;;;24.30;99.90;;;24.59;60.02;101032.91;4825937;29;20050;-74
2022/08/14 00:06:00;;;;;;;2.50;2.40;;;24.10;99.90;;;24.55;62.86;101037.63;4826245;29;20066;-75
2022/08/14 00:08:41;;;;;;;1.90;1.88;;;24.00;99.90;;;24.65;62.69;101037.94;4826541;29;20077;-74
2022/08/14 00:11:15;;;;;;;2.22;2.13;;;24.10;99.90;;;24.81;57.06;101028.88;4825832;29;20050;-74
2022/08/14 00:13:44;;;;;;;2.15;2.05;;;24.20;99.90;;;25.10;53.91;101016.25;4825805;29;20042;-75
2022/08/14 00:16:20;;;;;;;2.28;2.17;;;24.40;99.90;;;25.26;52.75;101014.28;4826019;29;20050;-75
2022/08/14 00:19:09;;;;;;;2.15;2.05;;;24.70;99.90;;;25.47;51.34;101018.44;4825985;29;20579;-74
2022/08/14 00:21:49;;;;;;;2.22;2.13;;;24.90;99.90;;;25.62;50.40;101013.84;4825666;29;20042;-74
2022/08/14 00:24:18;;;;;;;1.75;1.75;;;25.10;99.90;;;25.64;49.63;100998.38;4825369;29;20497;-74
2022/08/14 00:26:59;;;;;;;2.13;2.03;;;25.20;99.90;;;25.92;49.12;101010.00;4825508;29;20046;-75
2022/08/14 00:29:31;;;;;;;1.85;1.85;;;25.40;99.90;;;26.04;48.59;101019.19;4825481;29;20093;-75
2022/08/14 00:32:07;;;;;;;1.60;1.60;;;25.60;99.90;;;26.17;48.21;101008.44;4825786;29;20050;-75
2022/08/14 00:35:00;;;;;;;2.20;2.10;;;25.70;99.90;;;26.28;47.90;101005.88;4825676;29;20058;-75
2022/08/14 00:37:32;;;;;;;2.35;2.25;;;25.80;99.90;;;26.37;47.53;101005.25;4825439;29;20501;-75
2022/08/14 00:40:01;;;;;;;1.75;1.75;;;25.90;99.90;;;26.42;47.42;100997.69;4825561;29;20050;-75
2022/08/14 00:42:50;;;;;;;1.60;1.60;;;26.00;99.90;;;26.41;47.15;100987.78;4825582;29;20061;-75
2022/08/14 00:45:26;;;;;;;1.67;1.67;;;26.10;99.90;;;26.58;46.53;100993.78;4825132;29;20120;-75
2022/08/14 00:47:58;;;;;;;1.90;1.85;;;26.10;99.90;;;26.67;46.12;100989.59;4825624;29;20073;-75
2022/08/14 00:50:29;;;;;;;1.67;1.67;;;26.20;99.90;;;26.64;46.02;100981.66;4825291;29;20113;-75
2022/08/14 00:53:07;;;;;;;1.52;1.52;;;26.30;99.90;;;26.73;45.78;100978.34;4825039;29;20078;-75
2022/08/14 00:55:40;;;;;;;1.85;1.85;;;26.30;99.90;;;26.72;45.94;100979.31;4825091;29;20470;-75
2022/08/14 01:01:03;;;;;;;1.52;1.52;;;26.30;99.90;;;26.69;45.61;100963.22;4825023;29;20050;-75
2022/08/14 01:03:38;;;;;;;2.00;1.90;;;26.30;99.90;;;26.72;45.54;100966.63;4825399;29;20051;-75
2022/08/14 01:06:11;;;;;;;1.63;1.63;;;26.30;99.90;;;26.74;45.19;100972.81;4824100;29;20493;-75
2022/08/14 01:08:42;;;;;;;2.00;1.90;;;26.30;99.90;;;26.78;44.86;100971.63;4825009;29;20095;-75
2022/08/14 01:11:25;;;;;;;13.73;12.60;;;26.30;99.90;;;26.87;44.38;100974.66;4824996;29;20064;-75
2022/08/14 01:14:02;;;;;;;1.60;1.60;;;26.40;99.90;;;26.87;44.52;100978.22;4825498;29;20042;-75
2022/08/14 01:16:53;;;;;;;1.58;1.58;;;26.40;99.90;;;26.86;44.65;100971.09;4824822;29;20125;-74
2022/08/14 01:22:15;;;;;;;1.55;1.55;;;26.40;99.90;;;26.79;45.10;100967.91;4824864;29;20050;-74
2022/08/14 01:24:49;;;;;;;2.17;2.08;;;26.40;99.90;;;26.86;45.24;100962.94;4824952;29;20055;-74
2022/08/14 01:27:20;;;;;;;1.88;1.77;;;26.40;99.90;;;26.88;44.96;100966.41;4825011;29;20050;-74
2022/08/14 01:29:55;;;;;;;1.70;1.70;;;26.40;99.90;;;26.84;45.24;100959.44;4824763;29;20053;-75
2022/08/14 01:32:36;;;;;;;1.70;1.70;;;26.40;99.90;;;26.83;45.31;100949.56;4824902;29;20050;-75
2022/08/14 01:35:10;;;;;;;1.73;1.73;;;26.40;99.90;;;26.83;45.48;100944.13;4823818;29;20059;-74
2022/08/14 01:38:00;;;;;;;1.63;1.63;;;26.40;99.90;;;26.81;45.42;100951.50;4824619;29;20130;-75
2022/08/14 01:40:30;;;;;;;1.50;1.50;;;26.40;99.90;;;26.79;45.87;100959.78;4824504;29;20084;-75
2022/08/14 01:43:16;;;;;;;1.70;1.70;;;26.30;99.90;;;26.75;45.76;100955.53;4824588;29;20088;-75
2022/08/14 01:45:51;;;;;;;;;;;26.30;99.90;;;26.63;45.91;100955.50;4824866;29;20505;-75
2022/08/14 01:48:27;;;;;;;1.65;1.65;;;26.20;99.90;;;26.66;46.21;100949.84;4824574;29;19947;-75
2022/08/14 01:51:01;;;;;;;1.50;1.50;;;26.20;99.90;;;26.56;46.33;100946.03;4824732;29;20050;-75
2022/08/14 01:53:31;;;;;;;1.70;1.70;;;26.10;99.90;;;26.35;46.99;100929.38;4824505;29;20141;-75
2022/08/14 01:56:07;;;;;;;1.50;1.50;;;26.00;99.90;;;26.38;47.08;100945.47;4824917;29;20395;-75
2022/08/14 01:58:48;;;;;;;1.70;1.70;;;26.00;99.90;;;26.31;47.28;100941.41;4824888;29;20051;-75
2022/08/14 02:01:27;;;;;;;1.70;1.70;;;25.90;99.90;;;26.35;47.58;100942.06;4824246;29;20054;-75
2022/08/14 02:03:59;;;;;;;1.60;1.60;;;25.90;99.90;;;26.30;47.75;100936.97;4824372;29;20047;-75
2022/08/14 02:06:28;;;;;;;1.65;1.65;;;25.90;99.90;;;26.32;47.89;100936.88;4824577;29;20054;-75
2022/08/14 02:09:06;;;;;;;2.35;2.28;;;25.90;99.90;;;26.23;47.81;100930.22;4824511;29;20150;-75
2022/08/14 02:11:51;;;;;;;1.58;1.58;;;25.80;99.90;;;26.14;48.22;100911.00;4824210;29;20153;-75
2022/08/14 02:14:23;;;;;;;1.83;1.73;;;25.80;99.90;;;25.94;48.35;100883.34;4824124;29;20130;-75
2022/08/14 02:17:00;;;;;;;1.70;1.70;;;25.70;99.90;;;26.11;48.16;100911.22;4824149;29;20174;-75
2022/08/14 02:19:31;;;;;;;1.70;1.70;;;25.70;99.90;;;26.09;48.85;100915.88;4824157;29;20053;-75
2022/08/14 02:22:03;;;;;;;2.10;2.00;;;25.60;99.90;;;26.07;48.69;100915.09;4824225;29;20103;-75
2022/08/14 02:24:34;;;;;;;2.03;1.92;;;25.60;99.90;;;25.98;48.82;100903.00;4824128;29;20117;-75
2022/08/14 02:27:12;;;;;;;1.67;1.67;;;25.60;99.90;;;25.91;48.91;100897.13;4824046;29;20424;-75
2022/08/14 02:30:02;;;;;;;1.98;1.90;;;25.50;99.90;;;25.90;49.23;100900.78;4823947;29;20047;-75
2022/08/14 02:32:32;;;;;;;2.10;2.00;;;25.40;99.90;;;25.91;49.22;100902.56;4823954;29;20129;-75
2022/08/14 02:35:16;;;;;;;2.15;2.05;;;25.40;99.90;;;25.83;49.42;100902.19;4823952;29;20058;-75
2022/08/14 02:37:47;;;;;;;1.80;1.80;;;25.40;99.90;;;25.81;49.56;100895.13;4824107;29;20058;-75
2022/08/14 02:40:20;;;;;;;2.30;2.20;;;25.40;99.90;;;25.60;49.78;100873.03;4824158;29;20110;-75
2022/08/14 02:43:01;;;;;;;1.80;1.80;;;25.30;99.90;;;25.80;49.93;100902.38;4823940;29;20047;-74
2022/08/14 02:45:33;;;;;;;2.00;1.90;;;25.30;99.90;;;25.77;50.10;100896.28;4824645;29;20125;-75
2022/08/14 02:48:14;;;;;;;1.60;1.60;;;25.30;99.90;;;25.67;50.22;100889.75;4827826;29;20058;-75
2022/08/14 02:51:07;;;;;;;2.10;2.00;;;25.20;99.90;;;25.60;50.61;100888.44;4827197;29;20065;-74
2022/08/14 02:53:39;;;;;;;1.70;1.70;;;25.20;99.90;;;25.61;50.60;100895.59;4827207;29;20058;-75
2022/08/14 02:56:14;;;;;;;1.73;1.73;;;25.20;99.90;;;25.61;50.67;100888.31;4826126;29;20558;-75
2022/08/14 02:59:03;;;;;;;1.60;1.60;;;25.20;99.90;;;25.39;50.73;100868.13;4827133;29;20046;-75
2022/08/14 03:01:35;;;;;;;1.52;1.52;;;25.20;99.90;;;25.53;51.04;100882.53;4827153;29;20043;-75
2022/08/14 03:04:12;;;;;;;1.63;1.63;;;25.10;99.90;;;25.56;50.78;100884.19;4827258;29;20061;-75
2022/08/14 03:06:42;;;;;;;1.77;1.77;;;25.10;99.90;;;25.46;50.99;100883.91;4827100;29;20546;-75
2022/08/14 03:09:32;;;;;;;2.28;2.17;;;25.00;99.90;;;25.40;51.29;100878.91;4827101;29;20050;-75
2022/08/14 03:12:25;;;;;;;1.73;1.73;;;25.00;99.90;;;25.27;51.74;100883.34;4826944;29;20420;-75
2022/08/14 03:15:01;;;;;;;1.75;1.75;;;24.80;99.90;;;24.99;52.27;100886.94;4826781;29;20460;-75
2022/08/14 03:17:34;;;;;;;1.90;1.80;;;24.60;99.90;;;25.00;52.35;100886.00;4826648;29;20043;-74
2022/08/14 03:20:22;;;;;;;1.75;1.75;;;24.50;99.90;;;24.95;52.52;100879.13;4825597;29;20487;-75
2022/08/14 03:22:51;;;;;;;1.70;1.70;;;24.50;99.90;;;24.68;53.22;100873.56;4826649;29;20051;-74
2022/08/14 03:25:21;;;;;;;2.08;1.98;;;24.30;99.90;;;24.67;53.42;100876.38;4826856;29;20060;-74
2022/08/14 03:27:51;;;;;;;2.13;2.03;;;24.30;99.90;;;24.66;53.43;100871.94;4826643;29;20493;-74
2022/08/14 03:30:27;;;;;;;2.13;2.03;;;24.20;99.90;;;24.15;53.38;100781.38;4826550;29;20042;-74
2022/08/14 03:33:11;;;;;;;2.45;2.35;;;24.20;99.90;;;24.60;53.53;100873.19;4826814;29;20507;-75
2022/08/14 03:35:41;;;;;;;2.38;2.28;;;24.20;99.90;;;24.44;54.03;100871.53;4826547;29;20082;-74
2022/08/14 03:38:30;;;;;;;2.20;2.10;;;24.00;99.90;;;24.31;54.25;100841.69;4826382;29;20129;-75
2022/08/14 03:41:21;;;;;;;2.17;2.08;;;24.00;99.90;;;24.59;54.12;100867.88;4826319;29;20057;-75
2022/08/14 03:43:55;;;;;;;1.85;1.80;;;24.10;99.90;;;24.47;54.15;100866.78;4826307;29;20051;-74
2022/08/14 03:46:45;;;;;;;2.20;2.10;;;24.10;99.90;;;24.35;54.65;100861.28;4826644;29;20050;-75
2022/08/14 03:49:23;;;;;;;2.15;2.05;;;24.00;99.90;;;24.33;54.73;100844.28;4826239;29;20039;-75
2022/08/14 03:51:58;;;;;;;2.13;2.03;;;24.00;99.90;;;24.43;54.46;100865.25;4826680;29;20054;-75
2022/08/14 03:54:29;;;;;;;1.65;1.65;;;23.90;99.90;;;24.50;54.47;100854.94;4826425;29;20092;-74
2022/08/14 03:56:59;;;;;;;2.00;1.90;;;24.00;99.90;;;24.43;54.82;100859.84;4825780;29;20053;-75
2022/08/14 03:59:35;;;;;;;2.00;1.90;;;24.10;99.90;;;24.49;54.68;100858.56;4826009;29;20413;-75
2022/08/14 04:02:04;;;;;;;2.13;2.03;;;24.10;99.90;;;24.50;54.58;100854.94;4826073;29;20046;-75
2022/08/14 04:04:59;;;;;;;3.08;2.97;;;24.00;99.90;;;24.49;54.58;100853.16;4826159;29;20054;-75
2022/08/14 04:07:40;;;;;;;1.88;1.80;;;24.10;99.90;;;24.51;54.25;100853.94;4826265;29;20057;-75
2022/08/14 04:10:28;;;;;;;2.08;1.98;;;24.10;99.90;;;24.50;54.11;100849.50;4825945;29;20061;-75
2022/08/14 04:13:00;;;;;;;2.38;2.28;;;24.10;99.90;;;24.30;54.42;100856.16;4826175;29;20394;-75
2022/08/14 04:15:33;;;;;;;2.22;2.13;;;23.90;99.90;;;24.31;54.80;100843.50;4826108;29;20129;-75
2022/08/14 04:18:24;;;;;;;2.10;2.00;;;23.90;99.90;;;24.28;54.92;100827.44;4825788;29;20054;-75
2022/08/14 04:20:54;;;;;;;2.20;2.10;;;23.90;99.90;;;24.42;54.79;100851.81;4825800;29;20050;-75
2022/08/14 04:23:25;;;;;;;2.15;2.05;;;24.00;99.90;;;24.40;54.46;100851.03;4826080;29;20122;-75
2022/08/14 04:26:02;;;;;;;2.15;2.05;;;24.00;99.90;;;24.27;54.28;100850.94;4825752;29;20046;-75
2022/08/14 04:28:32;;;;;;;2.22;2.13;;;23.80;99.90;;;24.04;55.47;100852.31;4825590;29;20485;-75
2022/08/14 04:31:24;;;;;;;1.92;1.83;;;23.60;99.90;;;24.14;55.56;100836.41;4825855;29;20054;-75
2022/08/14 04:34:18;;;;;;;2.35;2.25;;;23.60;99.90;;;24.23;55.32;100840.41;4825632;29;20149;-75
2022/08/14 04:45:31;;;;;;;2.10;2.00;;;23.50;99.90;;;24.04;55.76;100819.88;4825802;29;20085;-75
2022/08/14 04:48:13;;;;;;;2.00;1.90;;;23.60;99.90;;;24.02;55.55;100818.25;4825597;29;20058;-75
2022/08/14 04:51:04;;;;;;;2.30;2.20;;;23.60;99.90;;;24.07;55.76;100825.13;4825788;29;20050;-75
2022/08/14 04:53:35;;;;;;;2.05;1.95;;;23.70;99.90;;;23.97;55.67;100823.88;4825293;29;20133;-75
2022/08/14 04:56:11;;;;;;;2.38;2.28;;;23.60;99.90;;;23.86;56.05;100825.50;4825155;29;20125;-75
2022/08/14 04:59:05;;;;;;;1.85;1.77;;;23.50;99.90;;;23.97;55.94;100820.31;4825262;29;20129;-75
2022/08/14 05:01:43;;;;;;;2.28;2.17;;;23.50;99.90;;;24.02;56.17;100813.69;4825377;29;20053;-75
2022/08/14 05:04:20;;;;;;;2.38;2.28;;;23.60;99.90;;;23.98;56.05;100803.16;4825378;29;20061;-75
2022/08/14 05:06:50;;;;;;;2.28;2.17;;;23.60;99.90;;;24.11;56.34;100810.44;4825108;29;20058;-75
2022/08/14 05:09:23;;;;;;;2.38;2.28;;;23.70;99.90;;;24.18;55.78;100806.41;4824972;29;20085;-75
2022/08/14 05:11:56;;;;;;;2.25;2.15;;;23.80;99.90;;;24.25;55.37;100814.13;4825026;29;20082;-75
2022/08/14 05:14:45;;;;;;;2.10;2.00;;;23.80;99.90;;;24.11;55.43;100815.84;4825195;29;20054;-75
2022/08/14 05:17:24;;;;;;;2.25;2.15;;;23.80;99.90;;;24.11;55.55;100810.44;4824950;29;20074;-75
2022/08/14 05:20:01;;;;;;;3.08;2.90;;;23.70;99.90;;;23.83;56.05;100806.75;4825156;29;20129;-75
2022/08/14 05:22:50;;;;;;;2.40;2.30;;;23.50;99.90;;;23.72;56.21;100798.44;4824991;29;20050;-75
2022/08/14 05:25:23;;;;;;;2.70;2.60;;;23.40;99.90;;;23.75;56.45;100796.41;4825084;29;20058;-75
2022/08/14 05:27:59;;;;;;;2.80;2.60;;;23.40;99.90;;;23.55;56.79;100794.03;4824806;29;20506;-75
2022/08/14 05:30:27;;;;;;;2.40;2.30;;;23.20;99.90;;;23.59;56.74;100801.00;4824697;29;20050;-75
2022/08/14 05:32:57;;;;;;;2.72;2.63;;;23.10;99.90;;;23.55;56.97;100791.34;4824907;29;20489;-75
2022/08/14 05:35:27;;;;;;;2.30;2.20;;;23.10;99.90;;;23.70;56.79;100798.53;4824629;29;20051;-75
2022/08/14 05:37:55;;;;;;;2.42;2.33;;;23.20;99.90;;;23.86;56.32;100802.06;4824541;29;20493;-75
2022/08/14 05:40:24;;;;;;;2.95;2.80;;;23.40;99.90;;;23.34;56.60;100700.81;4825075;29;20482;-75
2022/08/14 05:42:53;;;;;;;2.88;2.78;;;23.50;99.90;;;23.67;57.33;100796.03;4824446;29;20573;-75
2022/08/14 05:45:23;;;;;;;;;;;23.30;99.90;;;23.23;57.76;100795.00;4825020;29;20055;-75
2022/08/14 05:47:52;;;;;;;2.40;2.30;;;22.90;99.90;;;23.40;57.93;100784.16;4823525;29;20295;-75
2022/08/14 05:50:20;;;;;;;3.40;3.20;;;23.00;99.90;;;23.62;57.21;100799.94;4824653;29;20054;-75
2022/08/14 05:52:51;;;;;;;3.63;3.42;;;23.10;99.90;;;23.66;57.46;100799.66;4824898;29;20050;-74
2022/08/14 05:55:21;;;;;;;6.45;5.30;;;23.20;99.90;;;23.34;57.80;100789.91;4824382;29;20053;-74
2022/08/14 05:57:53;;;;;;;5.38;4.90;;;23.00;99.90;;;23.52;57.60;100783.41;4824857;29;20133;-75
2022/08/14 06:00:25;;;;;;;2.97;2.78;;;23.10;99.90;;;23.87;57.09;100792.97;4824913;29;20046;-74
2022/08/14 06:02:59;;;;;;;3.55;3.35;;;23.40;99.90;;;24.03;56.87;100804.63;4824342;29;20054;-74
2022/08/14 06:05:32;;;;;;;2.75;2.65;;;23.50;99.90;;;24.20;56.47;100809.00;4824488;29;20054;-74
2022/08/14 06:08:04;;;;;;;3.33;3.13;;;23.70;99.90;;;23.81;57.41;100809.56;4824471;29;20054;-74
2022/08/14 06:10:50;;;;;;;2.35;2.25;;;23.40;99.90;;;24.01;57.31;100803.81;4824406;29;20114;-74
2022/08/14 06:13:19;;;;;;;3.42;3.22;;;23.50;99.90;;;23.92;57.21;100799.00;4824361;29;20103;-74
2022/08/14 06:15:49;;;;;;;2.15;2.05;;;23.40;99.90;;;23.97;57.67;100795.97;4824385;29;20077;-74
2022/08/14 06:18:20;;;;;;;2.80;2.67;;;23.40;99.90;;;23.93;57.41;100779.09;4824182;29;20070;-74
2022/08/14 06:20:53;;;;;;;4.20;3.13;;;23.50;99.90;;;23.93;57.33;100784.50;4825223;29;20099;-74
2022/08/14 06:23:25;;;;;;;3.25;2.95;;;23.40;99.90;;;23.75;57.90;100799.09;4827981;29;20054;-74
2022/08/14 06:25:54;;;;;;;3.72;3.45;;;23.30;99.90;;;23.64;58.40;100804.28;4827772;29;20078;-74
2022/08/14 06:28:26;;;;;;;2.45;2.35;;;23.20;99.90;;;23.43;59.53;100807.38;4827931;29;20050;-74
2022/08/14 06:30:56;;;;;;;2.40;2.30;;;22.90;99.90;;;23.50;59.52;100779.91;4827557;29;20079;-74
2022/08/14 06:33:24;;;;;;;2.63;2.53;;;23.10;99.90;;;23.54;60.48;100802.25;4826498;29;20080;-74
2022/08/14 06:36:13;;;;;;;2.60;2.50;;;23.00;99.90;;;24.04;59.32;100809.06;4827578;29;20145;-74
2022/08/14 06:38:47;;;;;;;2.40;2.30;;;23.40;99.90;;;24.28;58.46;100806.69;4827670;29;20413;-74
2022/08/14 06:41:18;;;;;;;2.75;2.65;;;23.70;99.90;;;24.03;58.36;100801.94;4827586;29;20050;-74
2022/08/14 06:43:48;;;;;;;;;;;23.50;99.90;;;24.33;57.30;100803.72;4828248;29;20447;-74
2022/08/14 06:46:17;;;;;;;2.90;2.80;;;23.80;99.90;;;24.54;57.40;100797.84;4827885;29;19925;-74
2022/08/14 06:49:01;;;;;;;2.33;2.22;;;24.00;99.90;;;24.30;57.87;100749.81;4827738;29;20050;-73
2022/08/14 06:51:30;;;;;;;2.05;1.95;;;24.10;99.90;;;24.67;56.57;100795.22;4827482;29;20058;-74
2022/08/14 06:54:13;;;;;;;2.20;2.10;;;24.20;99.90;;;25.06;55.51;100798.09;4827414;29;20050;-74
2022/08/14 06:56:43;;;;;;;3.72;3.42;;;24.50;99.90;;;25.16;55.15;100792.94;4827143;29;20421;-74
2022/08/14 06:59:21;;;;;;;2.30;2.20;;;24.70;99.90;;;24.87;56.80;100792.16;4826909;29;20123;-74
2022/08/14 07:07:37;;;;;;;2.88;2.78;;;24.30;99.90;;;24.57;57.39;100777.81;4827190;29;20046;-74
2022/08/14 07:10:09;;;;;;;4.78;4.38;;;24.00;99.90;;;24.27;56.56;100782.47;4827220;29;20145;-74
2022/08/14 07:12:45;;;;;;;2.53;2.42;;;23.80;99.90;;;24.30;57.04;100771.44;4826775;29;20511;-74
2022/08/14 07:15:31;;;;;;;2.33;2.22;;;23.90;99.90;;;24.56;56.54;100785.09;4826659;29;20501;-74
2022/08/14 07:18:08;;;;;;;2.83;2.72;;;23.90;99.90;;;24.48;57.02;100782.00;4827042;29;20409;-74
2022/08/14 07:20:37;;;;;;;2.60;2.50;;;23.90;99.90;;;24.83;57.67;100780.66;4826859;29;20078;-74
2022/08/14 07:23:09;;;;;;;2.80;2.70;;;24.20;99.90;;;24.90;56.95;100786.50;4826524;29;20133;-74
2022/08/14 07:25:50;;;;;;;2.35;2.25;;;24.40;99.90;;;25.00;54.46;100784.94;4826613;29;20412;-74
2022/08/14 07:28:23;;;;;;;2.88;2.78;;;24.40;99.90;;;25.26;54.09;100772.41;4826363;29;20069;-74
2022/08/14 07:30:56;;;;;;;5.18;4.53;;;24.70;99.90;;;25.14;54.91;100793.06;4826589;29;20097;-74
2022/08/14 07:33:37;;;;;;;2.63;2.53;;;24.60;99.90;;;24.95;55.45;100792.53;4825622;29;20086;-74
2022/08/14 07:36:13;;;;;;;3.50;3.25;;;24.40;99.90;;;25.15;56.08;100792.06;4826637;29;20137;-74
2022/08/14 07:38:58;;;;;;;4.85;2.70;;;24.60;99.90;;;25.32;54.01;100788.25;4826304;29;20125;-74
2022/08/14 07:41:29;;;;;;;3.33;3.13;;;24.80;99.90;;;25.48;53.94;100787.16;4826298;29;20050;-74
2022/08/14 07:44:01;;;;;;;3.78;3.47;;;24.90;99.90;;;25.14;53.28;100794.88;4826454;29;20054;-74
2022/08/14 07:46:50;;;;;;;9.95;4.90;;;24.60;99.90;;;25.09;54.02;100769.97;4826075;29;20050;-74
2022/08/14 07:49:19;;;;;;;2.80;2.70;;;24.60;99.90;;;25.41;53.86;100791.25;4826206;29;20050;-74
2022/08/14 07:51:47;;;;;;;4.55;3.65;;;24.80;99.90;;;25.59;52.86;100783.75;4826231;29;20054;-74
2022/08/14 07:54:17;;;;;;;2.30;2.20;;;25.00;99.90;;;25.59;54.14;100790.00;4826095;29;20046;-75
2022/08/14 07:56:59;;;;;;;3.17;2.97;;;25.00;99.90;;;25.99;51.89;100781.84;4826089;29;20050;-73
2022/08/14 07:59:40;;;;;;;2.15;2.05;;;25.40;99.90;;;26.24;52.06;100773.78;4826023;29;20050;-74
2022/08/14 08:02:17;;;;;;;4.13;3.83;;;25.70;99.90;;;26.53;51.78;100773.44;4826009;29;20050;-74
2022/08/14 08:04:50;;;;;;;3.15;2.90;;;26.00;99.90;;;26.57;50.99;100774.09;4825862;29;20058;-74
2022/08/14 08:07:23;;;;;;;1.90;1.80;;;26.10;99.90;;;26.27;51.50;100773.53;4826142;29;20069;-74
2022/08/14 08:10:00;;;;;;;3.13;2.88;;;25.80;99.90;;;26.84;50.33;100779.38;4825899;29;20137;-74
2022/08/14 08:12:32;;;;;;;8.98;2.72;;;26.20;99.90;;;26.27;50.84;100765.41;4825633;29;20114;-73
2022/08/14 08:15:01;;;;;;;2.70;2.60;;;25.90;99.90;;;26.54;50.74;100761.59;4825793;29;20081;-73
2022/08/14 08:17:38;;;;;;;2.67;2.50;;;26.00;99.90;;;26.97;50.69;100764.78;4826016;29;20046;-73
2022/08/14 08:20:27;;;;;;;3.67;3.47;;;26.40;99.90;;;27.24;49.23;100776.31;4825617;29;20074;-73
2022/08/14 08:22:58;;;;;;;1.70;1.70;;;26.70;99.90;;;27.24;48.61;100762.75;4825642;29;20122;-73
2022/08/14 08:25:36;;;;;;;2.35;2.20;;;26.80;99.90;;;27.15;49.91;100762.56;4825665;29;20054;-74
2022/08/14 08:28:14;;;;;;;1.73;1.73;;;26.60;99.90;;;27.41;50.13;100765.06;4825603;29;20659;-74
2022/08/14 08:30:55;;;;;;;2.10;2.00;;;26.80;99.90;;;27.45;50.03;100766.59;4825481;29;20054;-74
2022/08/14 08:33:29;;;;;;;2.55;2.45;;;26.90;99.90;;;27.67;48.41;100753.09;4826154;29;20058;-74
2022/08/14 08:36:07;;;;;;;2.20;2.10;;;27.20;99.90;;;27.77;47.69;100763.25;4825732;29;20068;-74
2022/08/14 08:38:40;;;;;;;3.38;2.97;;;27.30;99.90;;;27.75;47.98;100759.78;4825722;29;20057;-74
2022/08/14 08:41:40;;;;;;;2.47;2.38;;;27.30;99.90;;;27.59;48.99;100754.66;4825704;29;20107;-74
2022/08/14 08:44:12;;;;;;;1.90;1.80;;;27.10;99.90;;;27.84;47.53;100759.06;4825444;29;20081;-74
2022/08/14 08:47:04;;;;;;;2.03;1.92;;;27.30;99.90;;;27.55;47.93;100754.03;4825596;29;20053;-74
2022/08/14 08:49:42;;;;;;;3.17;2.97;;;27.10;99.90;;;27.88;47.48;100761.44;4825532;29;20050;-74
2022/08/14 08:52:27;;;;;;;2.03;1.92;;;27.40;99.90;;;28.10;47.58;100756.09;4825754;29;20488;-74
2022/08/14 08:54:59;;;;;;;7.25;2.58;;;27.60;99.90;;;28.10;46.36;100760.66;4825287;29;20089;-74
2022/08/14 08:57:35;;;;;;;2.13;2.03;;;27.70;99.90;;;28.14;46.59;100752.16;4824272;29;20479;-74
2022/08/14 09:00:17;;;;;;;4.13;2.80;;;27.60;99.90;;;28.22;47.40;100759.69;4825141;29;20559;-73
2022/08/14 09:02:56;;;;;;;3.95;2.42;;;27.80;99.90;;;28.32;49.01;100752.53;4825103;29;20101;-73
2022/08/14 09:05:26;;;;;;;6.15;3.90;;;27.80;99.90;;;28.45;47.43;100756.00;4824896;29;20042;-73
2022/08/14 09:07:54;;;;;;;3.53;3.23;;;28.00;99.90;;;28.66;45.83;100751.59;4824927;29;20054;-73
2022/08/14 09:10:24;;;;;;;1.58;1.55;;;28.20;99.90;;;28.99;45.66;100748.81;4823946;29;20423;-73
2022/08/14 09:12:56;;;;;;;2.83;2.53;;;28.50;99.90;;;29.38;45.08;100756.41;4824906;29;20138;-73
2022/08/14 09:15:26;;;;;;;1.35;1.35;;;28.90;99.90;;;28.92;45.00;100744.00;4825133;29;20429;-73
2022/08/14 09:18:10;;;;;;;1.30;1.30;;;28.60;99.90;;;29.23;45.09;100749.53;4825439;29;20074;-73
2022/08/14 09:20:40;;;;;;;1.95;1.85;;;28.70;99.90;;;29.33;45.29;100747.75;4824972;29;20070;-74
2022/08/14 09:23:11;;;;;;;1.50;1.50;;;28.80;99.90;;;29.63;44.79;100725.22;4824732;29;20050;-74
2022/08/14 09:25:52;;;;;;;1.67;1.67;;;29.30;99.90;;;30.19;43.59;100742.13;4824686;29;20050;-73
2022/08/14 09:28:32;;;;;;;1.30;1.30;;;29.70;99.90;;;29.89;43.89;100731.16;4824980;29;20062;-73
2022/08/14 09:31:03;;;;;;;1.40;1.40;;;29.60;99.90;;;30.25;43.02;100714.31;4824855;29;20172;-72
2022/08/14 09:34:04;;;;;;;1.13;1.13;;;30.00;99.90;;;28.82;41.85;100422.53;4824618;29;20178;-73
2022/08/14 09:37:16;;;;;;;1.10;1.10;;;30.30;99.90;;;30.38;41.71;100731.34;4824869;29;20042;-73
2022/08/14 09:40:06;;;;;;;1.60;1.52;;;30.00;99.90;;;30.01;40.81;100730.97;4824397;29;20054;-73
2022/08/14 09:42:52;;;;;;;1.65;1.55;;;29.60;99.90;;;29.80;42.48;100617.41;4824295;29;20074;-73
2022/08/14 09:45:31;;;;;;;1.17;1.17;;;29.80;99.90;;;30.11;39.46;100703.72;4824488;29;20097;-73
2022/08/14 09:48:23;;;;;;;1.25;1.25;;;29.70;99.90;;;30.77;39.44;100725.03;4824466;29;20047;-73
2022/08/14 09:50:59;;;;;;;1.33;1.25;;;30.20;99.90;;;30.45;40.25;100698.91;4824905;29;20057;-73
2022/08/14 09:53:42;;;;;;;1.42;1.42;;;30.10;99.90;;;30.50;39.47;100694.75;4824695;29;20054;-73
2022/08/14 09:56:42;;;;;;;1.65;1.55;;;30.10;99.90;;;30.68;40.46;100700.44;4823883;29;20464;-73
2022/08/14 09:59:13;;;;;;;1.20;1.20;;;30.10;99.90;;;30.94;40.72;100708.00;4824801;29;20077;-73
2022/08/14 10:01:44;;;;;;;1.23;1.23;;;30.40;99.90;;;31.40;41.52;100704.63;4824415;29;20053;-73
2022/08/14 10:04:24;;;;;;;1.20;1.20;;;30.80;99.90;;;31.91;39.95;100713.41;4824565;29;20050;-74
2022/08/14 10:07:10;;;;;;;1.20;1.20;;;31.40;99.90;;;31.48;39.26;100701.16;4824395;29;20093;-75
2022/08/14 10:09:49;;;;;;;1.88;1.77;;;31.20;99.90;;;31.96;37.80;100702.88;4824477;29;20050;-73
2022/08/14 10:12:47;;;;;;;0.90;0.90;;;31.50;99.90;;;31.82;37.86;100692.34;4824233;29;20054;-73
2022/08/14 10:15:20;;;;;;;0.95;0.95;;;31.40;99.90;;;32.35;37.88;100702.75;4824047;29;20054;-73
2022/08/14 10:18:08;;;;;;;1.35;1.35;;;31.80;99.90;;;32.28;36.56;100698.91;4824306;29;20131;-73
2022/08/14 10:20:43;;;;;;;1.00;1.00;;;31.90;99.90;;;32.10;37.34;100690.59;4823015;29;20073;-72
2022/08/14 10:23:21;;;;;;;1.25;1.25;;;31.70;99.90;;;32.36;37.20;100688.06;4824148;29;20678;-74
2022/08/14 10:25:53;;;;;;;1.20;1.20;;;32.00;99.90;;;32.12;35.13;100691.31;4823923;29;20046;-74
2022/08/14 10:28:23;;;;;;;1.20;1.20;;;31.80;99.90;;;32.19;36.38;100688.84;4824052;29;20050;-74
2022/08/14 10:31:21;;;;;;;1.02;1.02;;;31.80;99.90;;;32.67;35.65;100686.78;4824605;29;20050;-74
2022/08/14 10:34:04;;;;;;;1.38;1.33;;;32.20;99.90;;;32.66;35.73;100683.19;4824137;29;20062;-74
2022/08/14 10:36:47;;;;;;;1.00;1.00;;;32.30;99.90;;;32.23;36.56;100671.94;4824156;29;20059;-74
2022/08/14 10:39:21;;;;;;;1.30;1.30;;;31.80;99.90;;;32.58;34.19;100679.47;4824113;29;20058;-74
2022/08/14 10:42:04;;;;;;;1.10;1.10;;;32.10;99.90;;;31.88;34.93;100674.50;4823842;29;20067;-67
2022/08/14 10:44:48;;;;;;;1.30;1.30;;;31.50;99.90;;;32.28;37.17;100677.84;4823838;29;20045;-64
2022/08/14 10:47:20;;;;;;;1.95;1.65;;;31.70;99.90;;;31.81;37.44;100663.28;4823177;29;20061;-64
2022/08/14 10:50:09;;;;;;;0.90;0.90;;;31.50;99.90;;;31.83;37.75;100663.13;4822652;29;20050;-63
2022/08/14 10:52:45;;;;;;;1.13;1.13;;;31.30;99.90;;;32.40;37.20;100662.97;4823934;29;20069;-64
2022/08/14 10:55:18;;;;;;;1.58;1.52;;;31.80;99.90;;;32.50;35.22;100671.16;4823901;29;20062;-64
2022/08/14 10:57:53;;;;;;;2.13;1.95;;;32.10;99.90;;;32.07;35.85;100669.00;4822850;29;20061;-64
2022/08/14 11:00:25;;;;;;;0.90;0.90;;;31.80;99.90;;;32.52;35.67;100652.69;4822463;29;20054;-64
2022/08/14 11:03:08;;;;;;;1.30;1.30;;;32.10;99.90;;;32.41;35.43;100669.28;4824080;29;20057;-63
2022/08/14 11:05:44;;;;;;;1.02;1.02;;;32.10;99.90;;;31.88;36.17;100652.59;4823645;29;20054;-64
2022/08/14 11:08:18;;;;;;;2.28;2.08;;;31.50;99.90;;;31.81;39.14;100656.94;4826726;29;20054;-64
2022/08/14 11:10:49;;;;;;;2.58;2.10;;;31.30;99.90;;;31.34;36.12;100655.09;4826832;29;20043;-63
2022/08/14 11:13:22;;;;;;;1.73;1.63;;;30.90;99.90;;;31.66;37.41;100647.47;4826848;29;20121;-64